createdAt,value
2023-01-01T00:01:40.449Z,99863.92
2023-01-01T00:04:09.309Z,99867.82
2023-01-01T00:06:36.213Z,99868.23
2023-01-01T00:09:21.740Z,99868.48
2023-01-01T00:11:48.459Z,99863.42
2023-01-01T00:14:15.099Z,99859.16
2023-01-01T00:16:41.893Z,99856.27
2023-01-01T00:19:08.575Z,99855.64
2023-01-01T00:21:35.305Z,99857.84
2023-01-01T00:24:02.032Z,99859.69
2023-01-01T00:26:34.657Z,99861.69
2023-01-01T00:29:02.087Z,99858.71
2023-01-01T00:31:28.961Z,99869.85
2023-01-01T00:33:55.976Z,99864.70
2023-01-01T00:36:23.835Z,99854.85
2023-01-01T00:38:50.563Z,99847.98
2023-01-01T00:41:17.859Z,99849.56
2023-01-01T00:43:44.788Z,99851.42
2023-01-01T00:46:11.533Z,99854.73
2023-01-01T00:48:38.375Z,99859.01
2023-01-01T00:51:05.167Z,99860.34
2023-01-01T00:53:31.908Z,99855.08
2023-01-01T00:55:58.640Z,99844.30
2023-01-01T00:58:25.354Z,99845.55
2023-01-01T01:00:52.581Z,99840.34
2023-01-01T01:03:28.415Z,99839.73
2023-01-01T01:05:58.888Z,99836.82
2023-01-01T01:08:30.638Z,99836.36
2023-01-01T01:11:10.411Z,99838.42
2023-01-01T01:13:37.498Z,99840.39
2023-01-01T01:16:11.651Z,99843.36
2023-01-01T01:18:38.361Z,99844.60
2023-01-01T01:21:05.794Z,99847.27
2023-01-01T01:23:32.858Z,99843.33
2023-01-01T01:26:13.396Z,99848.64
2023-01-01T01:28:45.412Z,99857.13
2023-01-01T01:31:15.773Z,99855.27
2023-01-01T01:33:45.793Z,99847.67
2023-01-01T01:36:13.136Z,99836.27
2023-01-01T01:38:39.895Z,99830.88
2023-01-01T01:41:06.574Z,99836.88
2023-01-01T01:43:33.248Z,99843.15
2023-01-01T01:46:11.043Z,99846.25
2023-01-01T01:48:42.589Z,99843.52
2023-01-01T01:51:09.713Z,99838.30
2023-01-01T01:53:38.469Z,99832.97
2023-01-01T01:56:07.853Z,99839.27
2023-01-01T01:58:34.599Z,99839.95
2023-01-01T02:01:01.446Z,99837.91
2023-01-01T02:03:34.933Z,99834.67
2023-01-01T02:06:01.664Z,99829.01
2023-01-01T02:08:28.428Z,99830.06
2023-01-01T02:10:55.115Z,99832.17
2023-01-01T02:13:21.863Z,99821.30
2023-01-01T02:15:50.787Z,99814.10
2023-01-01T02:18:20.279Z,99814.06
2023-01-01T02:20:49.736Z,99821.01
2023-01-01T02:23:22.401Z,99823.88
2023-01-01T02:25:55.167Z,99823.61
2023-01-01T02:28:42.171Z,99823.05
2023-01-01T02:31:08.951Z,99824.23
2023-01-01T02:33:35.599Z,99824.84
2023-01-01T02:36:03.131Z,99830.41
2023-01-01T02:38:33.776Z,99833.44
2023-01-01T02:41:08.501Z,99827.66
2023-01-01T02:43:35.444Z,99824.33
2023-01-01T02:46:05.618Z,99820.44
2023-01-01T02:48:37.998Z,99821.96
2023-01-01T02:51:09.037Z,99818.71
2023-01-01T02:53:37.135Z,99814.00
2023-01-01T02:56:47.436Z,99816.58
2023-01-01T02:59:44.241Z,99811.81
2023-01-01T03:02:25.874Z,99809.76
2023-01-01T03:05:05.065Z,99807.66
2023-01-01T03:07:48.184Z,99811.20
2023-01-01T03:10:24.107Z,99817.16
2023-01-01T03:12:56.044Z,99817.56
2023-01-01T03:15:45.951Z,99823.80
2023-01-01T03:18:25.907Z,99829.23
2023-01-01T03:20:54.713Z,99829.05
2023-01-01T03:23:23.879Z,99822.14
2023-01-01T03:25:52.116Z,99817.70
2023-01-01T03:28:22.739Z,99818.58
2023-01-01T03:30:49.714Z,99823.77
2023-01-01T03:33:30.490Z,99825.16
2023-01-01T03:36:06.755Z,99827.27
2023-01-01T03:38:42.586Z,99825.29
2023-01-01T03:42:06.226Z,99817.96
2023-01-01T03:44:35.259Z,99819.42
2023-01-01T03:47:02.197Z,99824.46
2023-01-01T03:49:28.955Z,99829.86
2023-01-01T03:51:55.620Z,99829.02
2023-01-01T03:54:40.447Z,99828.93
2023-01-01T03:57:09.658Z,99827.92
2023-01-01T03:59:43.378Z,99830.00
2023-01-01T04:02:10.955Z,99832.55
2023-01-01T04:04:37.739Z,99835.37
2023-01-01T04:07:14.726Z,99835.42
2023-01-01T04:09:43.673Z,99837.36
2023-01-01T04:12:10.540Z,99839.48
2023-01-01T04:14:38.178Z,99840.92
2023-01-01T04:17:05.870Z,99837.33
2023-01-01T04:19:32.639Z,99833.20
2023-01-01T04:21:59.280Z,99831.23
2023-01-01T04:24:26.040Z,99828.46
2023-01-01T04:26:53.066Z,99827.77
2023-01-01T04:29:19.922Z,99830.02
2023-01-01T04:31:46.622Z,99830.80
2023-01-01T04:34:13.373Z,99833.55
2023-01-01T04:36:40.126Z,99831.48
2023-01-01T04:39:08.629Z,99828.89
2023-01-01T04:41:35.402Z,99831.05
2023-01-01T04:44:02.004Z,99826.98
2023-01-01T04:46:28.736Z,99832.13
2023-01-01T04:48:55.436Z,99835.45
2023-01-01T04:51:22.199Z,99837.10
2023-01-01T04:53:48.792Z,99844.41
2023-01-01T04:56:20.247Z,99838.99
2023-01-01T04:58:47.727Z,99844.42
2023-01-01T05:01:22.956Z,99844.79
2023-01-01T05:03:50.069Z,99837.90
2023-01-01T05:06:16.866Z,99835.39
2023-01-01T05:08:44.879Z,99840.02
2023-01-01T05:11:11.503Z,99842.67
2023-01-01T05:13:38.777Z,99840.80
2023-01-01T05:16:06.537Z,99835.48
2023-01-01T05:18:33.398Z,99840.10
2023-01-01T05:21:00.761Z,99845.39
2023-01-01T05:23:28.798Z,99846.90
2023-01-01T05:25:55.558Z,99848.58
2023-01-01T05:28:23.380Z,99848.27
2023-01-01T05:30:53.348Z,99849.45
2023-01-01T05:33:20.217Z,99846.92
2023-01-01T05:35:46.884Z,99848.09
2023-01-01T05:38:13.671Z,99853.29
2023-01-01T05:40:40.451Z,99845.64
2023-01-01T05:43:07.393Z,99846.95
2023-01-01T05:45:34.379Z,99847.09
2023-01-01T05:48:01.214Z,99844.98
2023-01-01T05:50:27.909Z,99849.44
2023-01-01T05:52:54.646Z,99853.09
2023-01-01T05:55:21.385Z,99853.37
2023-01-01T05:57:48.005Z,99852.30
2023-01-01T06:00:15.225Z,99851.26
2023-01-01T06:02:41.998Z,99854.53
2023-01-01T06:05:08.873Z,99859.02
2023-01-01T06:07:35.511Z,99869.11
2023-01-01T06:10:02.424Z,99872.75
2023-01-01T06:12:29.136Z,99875.08
2023-01-01T06:14:55.810Z,99865.29
2023-01-01T06:17:22.543Z,99867.77
2023-01-01T06:19:49.150Z,99878.17
2023-01-01T06:22:15.888Z,99874.38
2023-01-01T06:24:42.564Z,99872.65
2023-01-01T06:27:09.255Z,99872.77
2023-01-01T06:29:35.988Z,99868.84
2023-01-01T06:32:02.654Z,99865.48
2023-01-01T06:34:29.400Z,99860.27
2023-01-01T06:36:58.997Z,99859.52
2023-01-01T06:39:29.725Z,99855.96
2023-01-01T06:41:56.401Z,99859.23
2023-01-01T06:44:23.106Z,99862.30
2023-01-01T06:46:49.799Z,99863.52
2023-01-01T06:49:16.479Z,99867.26
2023-01-01T06:51:43.753Z,99866.45
2023-01-01T06:54:10.708Z,99864.31
2023-01-01T06:56:37.522Z,99860.04
2023-01-01T06:59:04.130Z,99861.98
2023-01-01T07:01:32.325Z,99858.83
2023-01-01T07:04:00.549Z,99864.50
2023-01-01T07:06:28.205Z,99863.65
2023-01-01T07:08:55.001Z,99860.90
2023-01-01T07:11:21.621Z,99866.62
2023-01-01T07:13:48.356Z,99876.47
2023-01-01T07:16:15.039Z,99878.29
2023-01-01T07:18:41.771Z,99883.48
2023-01-01T07:21:43.449Z,99885.89
2023-01-01T07:24:12.084Z,99876.90
2023-01-01T07:26:38.834Z,99874.59
2023-01-01T07:29:07.983Z,99878.83
2023-01-01T07:31:36.178Z,99878.39
2023-01-01T07:34:03.104Z,99876.79
2023-01-01T07:36:29.739Z,99877.70
2023-01-01T07:38:56.422Z,99879.35
2023-01-01T07:41:23.116Z,99878.34
2023-01-01T07:43:49.778Z,99879.09
2023-01-01T07:46:18.940Z,99880.73
2023-01-01T07:48:45.878Z,99878.45
2023-01-01T07:51:12.481Z,99884.15
2023-01-01T07:53:39.223Z,99873.23
2023-01-01T07:56:06.073Z,99875.39
2023-01-01T07:58:32.779Z,99874.56
2023-01-01T08:00:59.517Z,99870.73
2023-01-01T08:03:26.141Z,99872.42
2023-01-01T08:05:52.913Z,99870.57
2023-01-01T08:08:19.538Z,99869.81
2023-01-01T08:10:46.216Z,99864.26
2023-01-01T08:13:12.920Z,99866.49
2023-01-01T08:15:39.647Z,99865.65
2023-01-01T08:18:06.468Z,99865.73
2023-01-01T08:20:33.200Z,99863.27
2023-01-01T08:23:07.117Z,99856.34
2023-01-01T08:25:34.917Z,99858.53
2023-01-01T08:28:01.655Z,99863.11
2023-01-01T08:30:28.316Z,99865.89
2023-01-01T08:32:55.136Z,99868.55
2023-01-01T08:35:21.772Z,99866.92
2023-01-01T08:37:48.473Z,99863.76
2023-01-01T08:40:15.128Z,99869.97
2023-01-01T08:42:41.903Z,99868.30
2023-01-01T08:45:08.741Z,99866.59
2023-01-01T08:47:35.456Z,99862.91
2023-01-01T08:50:02.165Z,99862.27
2023-01-01T08:52:28.951Z,99864.33
2023-01-01T08:54:55.529Z,99864.39
2023-01-01T08:57:22.259Z,99867.80
2023-01-01T08:59:48.872Z,99865.27
2023-01-01T09:02:15.764Z,99856.07
2023-01-01T09:04:42.662Z,99851.84
2023-01-01T09:07:09.387Z,99852.32
2023-01-01T09:09:36.093Z,99847.29
2023-01-01T09:12:06.165Z,99844.24
2023-01-01T09:14:33.694Z,99841.39
2023-01-01T09:17:00.416Z,99840.14
2023-01-01T09:19:27.229Z,99840.40
2023-01-01T09:21:54.409Z,99833.05
2023-01-01T09:24:21.134Z,99832.75
2023-01-01T09:26:48.008Z,99828.02
2023-01-01T09:29:18.665Z,99832.25
2023-01-01T09:31:45.658Z,99828.33
2023-01-01T09:34:12.540Z,99826.39
2023-01-01T09:36:39.369Z,99827.66
2023-01-01T09:39:07.990Z,99824.91
2023-01-01T09:41:53.543Z,99828.02
2023-01-01T09:44:45.283Z,99821.96
2023-01-01T09:47:28.650Z,99824.23
2023-01-01T09:49:57.163Z,99822.83
2023-01-01T09:52:23.908Z,99821.00
2023-01-01T09:54:55.776Z,99815.98
2023-01-01T09:57:28.606Z,99815.92
2023-01-01T09:59:56.786Z,99823.08
2023-01-01T10:02:36.706Z,99829.37
2023-01-01T10:05:05.920Z,99821.29
2023-01-01T10:07:41.689Z,99817.85
2023-01-01T10:10:26.894Z,99812.55
2023-01-01T10:12:59.727Z,99815.10
2023-01-01T10:15:29.964Z,99822.00
2023-01-01T10:18:00.772Z,99812.73
2023-01-01T10:20:36.993Z,99804.48
2023-01-01T10:23:09.938Z,99801.48
2023-01-01T10:25:36.711Z,99795.82
2023-01-01T10:28:12.485Z,99795.88
2023-01-01T10:30:39.692Z,99798.00
2023-01-01T10:33:10.384Z,99804.69
2023-01-01T10:35:42.338Z,99806.58
2023-01-01T10:38:11.472Z,99810.88
2023-01-01T10:40:39.799Z,99815.26
2023-01-01T10:43:12.394Z,99815.08
2023-01-01T10:45:43.334Z,99816.20
2023-01-01T10:48:11.920Z,99814.75
2023-01-01T10:50:46.568Z,99811.13
2023-01-01T10:53:38.681Z,99810.02
2023-01-01T10:56:13.214Z,99811.90
2023-01-01T10:58:47.630Z,99814.95
2023-01-01T11:01:31.222Z,99815.95
2023-01-01T11:04:00.152Z,99811.33
2023-01-01T11:06:33.646Z,99812.84
2023-01-01T11:09:03.630Z,99812.04
2023-01-01T11:12:00.644Z,99810.91
2023-01-01T11:14:37.856Z,99812.67
2023-01-01T11:17:04.746Z,99820.93
2023-01-01T11:19:36.828Z,99817.04
2023-01-01T11:22:04.156Z,99814.27
2023-01-01T11:24:32.210Z,99821.72
2023-01-01T11:27:19.180Z,99823.91
2023-01-01T11:29:45.918Z,99818.09
2023-01-01T11:32:28.319Z,99815.02
2023-01-01T11:35:02.240Z,99808.85
2023-01-01T11:37:36.120Z,99801.68
2023-01-01T11:40:03.897Z,99802.69
2023-01-01T11:42:32.567Z,99799.11
2023-01-01T11:45:02.023Z,99798.60
2023-01-01T11:47:42.253Z,99801.58
2023-01-01T11:50:14.553Z,99794.70
2023-01-01T11:52:43.228Z,99795.68
2023-01-01T11:55:35.216Z,99792.43
2023-01-01T11:58:19.848Z,99790.14
2023-01-01T12:00:50.981Z,99790.72
2023-01-01T12:03:41.440Z,99791.21
2023-01-01T12:06:27.203Z,99797.06
2023-01-01T12:09:11.987Z,99799.85
2023-01-01T12:11:53.234Z,99802.42
2023-01-01T12:14:22.628Z,99802.67
2023-01-01T12:16:59.226Z,99801.92
2023-01-01T12:19:40.284Z,99801.98
2023-01-01T12:22:13.085Z,99801.27
2023-01-01T12:24:39.772Z,99798.17
2023-01-01T12:27:11.214Z,99801.29
2023-01-01T12:30:00.811Z,99807.11
2023-01-01T12:32:35.562Z,99805.41
2023-01-01T12:35:14.431Z,99803.62
2023-01-01T12:37:49.907Z,99810.89
2023-01-01T12:40:38.921Z,99813.98
2023-01-01T12:43:16.300Z,99818.02
2023-01-01T12:46:06.196Z,99822.88
2023-01-01T12:48:51.736Z,99824.46
2023-01-01T12:51:56.049Z,99825.23
2023-01-01T12:54:50.915Z,99832.71
2023-01-01T12:57:32.156Z,99832.15
2023-01-01T13:00:01.052Z,99829.48
2023-01-01T13:02:30.081Z,99830.63
2023-01-01T13:05:36.760Z,99833.30
2023-01-01T13:08:04.176Z,99834.37
2023-01-01T13:10:38.818Z,99838.73
2023-01-01T13:13:05.659Z,99836.23
2023-01-01T13:15:38.596Z,99838.14
2023-01-01T13:18:05.917Z,99850.27
2023-01-01T13:20:32.640Z,99853.05
2023-01-01T13:22:59.261Z,99858.79
2023-01-01T13:25:26.062Z,99861.91
2023-01-01T13:28:04.928Z,99859.13
2023-01-01T13:30:44.059Z,99859.03
2023-01-01T13:33:29.749Z,99855.09
2023-01-01T13:36:09.179Z,99856.23
2023-01-01T13:38:54.789Z,99857.91
2023-01-01T13:41:37.172Z,99865.81
2023-01-01T13:44:03.920Z,99870.86
2023-01-01T13:46:30.601Z,99868.22
2023-01-01T13:49:34.585Z,99873.48
2023-01-01T13:52:52.535Z,99875.92
2023-01-01T13:55:37.779Z,99882.55
2023-01-01T13:58:49.826Z,99891.48
2023-01-01T14:01:25.853Z,99894.13
2023-01-01T14:03:53.699Z,99896.14
2023-01-01T14:06:24.906Z,99900.02
2023-01-01T14:09:02.021Z,99902.23
2023-01-01T14:11:29.363Z,99904.35
2023-01-01T14:13:56.045Z,99905.41
2023-01-01T14:16:22.813Z,99907.02
2023-01-01T14:18:50.781Z,99909.73
2023-01-01T14:21:21.949Z,99915.77
2023-01-01T14:23:49.202Z,99914.49
2023-01-01T14:26:18.224Z,99912.31
2023-01-01T14:28:45.025Z,99914.86
2023-01-01T14:31:27.467Z,99908.23
2023-01-01T14:33:54.462Z,99912.41
2023-01-01T14:36:31.370Z,99916.71
2023-01-01T14:39:00.913Z,99914.04
2023-01-01T14:41:34.682Z,99910.52
2023-01-01T14:44:10.736Z,99909.11
2023-01-01T14:46:41.505Z,99905.73
2023-01-01T14:49:09.415Z,99912.70
2023-01-01T14:51:44.088Z,99913.81
2023-01-01T14:54:15.821Z,99921.05
2023-01-01T14:56:42.523Z,99920.73
2023-01-01T14:59:12.241Z,99918.73
2023-01-01T15:01:41.028Z,99914.55
2023-01-01T15:04:34.285Z,99918.12
2023-01-01T15:07:01.246Z,99922.61
2023-01-01T15:09:28.625Z,99926.66
2023-01-01T15:11:55.849Z,99927.58
2023-01-01T15:14:28.664Z,99928.02
2023-01-01T15:17:06.004Z,99925.02
2023-01-01T15:19:32.880Z,99925.40
2023-01-01T15:21:59.563Z,99932.55
2023-01-01T15:24:28.700Z,99933.03
2023-01-01T15:26:59.823Z,99935.69
2023-01-01T15:29:34.239Z,99939.23
2023-01-01T15:32:02.082Z,99933.39
2023-01-01T15:34:55.884Z,99935.98
2023-01-01T15:37:34.389Z,99932.67
2023-01-01T15:40:04.044Z,99935.04
2023-01-01T15:42:32.692Z,99930.41
2023-01-01T15:45:32.210Z,99930.21
2023-01-01T15:48:19.117Z,99933.02
2023-01-01T15:50:48.419Z,99931.64
2023-01-01T15:53:18.830Z,99932.02
2023-01-01T15:59:09.565Z,99938.30
2023-01-01T16:01:38.574Z,99938.26
2023-01-01T16:04:09.554Z,99937.64
2023-01-01T16:06:46.503Z,99939.55
2023-01-01T16:09:14.172Z,99939.16
2023-01-01T16:11:41.435Z,99940.91
2023-01-01T16:14:08.215Z,99943.51
2023-01-01T16:16:35.242Z,99941.80
2023-01-01T16:19:02.101Z,99944.79
2023-01-01T16:21:29.130Z,99942.23
2023-01-01T16:23:57.054Z,99941.66
2023-01-01T16:26:23.740Z,99943.38
2023-01-01T16:28:50.661Z,99942.42
2023-01-01T16:31:27.965Z,99947.09
2023-01-01T16:33:55.516Z,99947.56
2023-01-01T16:36:22.650Z,99950.48
2023-01-01T16:38:49.534Z,99956.83
2023-01-01T16:41:17.565Z,99955.12
2023-01-01T16:43:45.043Z,99956.99
2023-01-01T16:46:13.535Z,99962.08
2023-01-01T16:48:40.608Z,99962.27
2023-01-01T16:51:07.443Z,99964.12
2023-01-01T16:53:34.118Z,99966.15
2023-01-01T16:56:00.922Z,99963.27
2023-01-01T17:01:14.618Z,99963.31
2023-01-01T17:03:41.526Z,99966.02
2023-01-01T17:06:08.817Z,99966.05
2023-01-01T17:08:35.931Z,99970.84
2023-01-01T17:11:13.849Z,99972.89
2023-01-01T17:13:41.397Z,99968.88
2023-01-01T17:16:08.590Z,99977.81
2023-01-01T17:21:22.291Z,99975.48
2023-01-01T17:23:49.132Z,99976.77
2023-01-01T17:26:16.592Z,99977.19
2023-01-01T17:28:43.776Z,99981.27
2023-01-01T17:31:12.603Z,99981.23
2023-01-01T17:33:39.595Z,99979.03
2023-01-01T17:36:06.845Z,99979.44
2023-01-01T17:38:33.952Z,99982.19
2023-01-01T17:41:07.519Z,99982.05
2023-01-01T17:43:35.005Z,99979.11
2023-01-01T17:46:10.983Z,99980.58
2023-01-01T17:48:37.822Z,99983.52
2023-01-01T17:51:07.886Z,99982.21
2023-01-01T17:53:34.705Z,99980.73
2023-01-01T17:56:02.911Z,99984.02
2023-01-01T17:58:35.284Z,99985.36
2023-01-01T18:01:18.110Z,99983.23
2023-01-01T18:03:45.803Z,99983.83
2023-01-01T18:06:12.642Z,99981.73
2023-01-01T18:08:39.543Z,99981.41
2023-01-01T18:11:06.370Z,99977.58
2023-01-01T18:13:33.178Z,99980.68
2023-01-01T18:16:01.393Z,99978.58
2023-01-01T18:18:30.976Z,99988.29
2023-01-01T18:21:05.252Z,99981.80
2023-01-01T18:23:35.797Z,99985.05
2023-01-01T18:26:02.995Z,99981.14
2023-01-01T18:28:29.915Z,99976.48
2023-01-01T18:30:56.997Z,99976.24
2023-01-01T18:33:23.780Z,99973.75
2023-01-01T18:35:50.475Z,99975.13
2023-01-01T18:38:17.155Z,99968.17
2023-01-01T18:40:48.910Z,99972.40
2023-01-01T18:43:19.664Z,99975.06
2023-01-01T18:45:46.591Z,99973.30
2023-01-01T18:48:13.671Z,99973.88
2023-01-01T18:50:40.400Z,99978.27
2023-01-01T18:53:12.991Z,99978.85
2023-01-01T18:55:40.120Z,99986.06
2023-01-01T18:58:21.411Z,99993.30
2023-01-01T19:00:49.110Z,99994.31
2023-01-01T19:03:28.203Z,99994.39
2023-01-01T19:05:55.755Z,99994.52
2023-01-01T19:08:23.038Z,99999.70
2023-01-01T19:10:51.416Z,99999.70
2023-01-01T19:13:19.141Z,99999.19
2023-01-01T19:15:53.469Z,99997.48
2023-01-01T19:18:24.823Z,100000.83
2023-01-01T19:21:13.560Z,100003.20
2023-01-01T19:23:56.605Z,100009.54
2023-01-01T19:26:36.803Z,100013.70
2023-01-01T19:29:15.545Z,100011.88
2023-01-01T19:31:42.660Z,100008.31
2023-01-01T19:34:09.734Z,100008.61
2023-01-01T19:36:38.296Z,100004.83
2023-01-01T19:39:06.158Z,100009.92
2023-01-01T19:41:33.211Z,100009.71
2023-01-01T19:43:59.968Z,100006.45
2023-01-01T19:46:26.849Z,100002.94
2023-01-01T19:48:53.802Z,100011.45
2023-01-01T19:51:22.779Z,100014.19
2023-01-01T19:53:50.328Z,100009.77
2023-01-01T19:56:17.086Z,100008.02
2023-01-01T19:58:47.020Z,100005.95
2023-01-01T20:01:14.266Z,100004.91
2023-01-01T20:03:57.888Z,100004.45
2023-01-01T20:06:25.241Z,100005.11
2023-01-01T20:08:52.359Z,100006.92
2023-01-01T20:11:20.020Z,100011.54
2023-01-01T20:13:46.925Z,100018.61
2023-01-01T20:16:13.552Z,100014.77
2023-01-01T20:18:40.409Z,100013.45
2023-01-01T20:21:27.091Z,100016.13
2023-01-01T20:23:55.311Z,100014.59
2023-01-01T20:26:23.890Z,100016.73
2023-01-01T20:29:09.628Z,100018.23
2023-01-01T20:31:36.926Z,100027.65
2023-01-01T20:34:03.671Z,100030.61
2023-01-01T20:36:49.218Z,100031.20
2023-01-01T20:39:15.917Z,100041.59
2023-01-01T20:41:42.682Z,100040.26
2023-01-01T20:44:09.335Z,100039.83
2023-01-01T20:46:38.233Z,100036.53
2023-01-01T20:49:05.211Z,100037.02
2023-01-01T20:51:31.859Z,100045.45
2023-01-01T20:53:58.656Z,100042.38
2023-01-01T20:56:25.447Z,100045.19
2023-01-01T20:58:57.588Z,100049.54
2023-01-01T21:01:27.284Z,100056.05
2023-01-01T21:03:54.191Z,100059.08
2023-01-01T21:06:24.574Z,100059.85
2023-01-01T21:08:52.227Z,100056.50
2023-01-01T21:11:18.969Z,100060.41
2023-01-01T21:13:45.695Z,100061.73
2023-01-01T21:16:13.925Z,100058.39
2023-01-01T21:18:41.222Z,100057.73
2023-01-01T21:21:17.892Z,100059.88
2023-01-01T21:23:44.651Z,100067.80
2023-01-01T21:26:19.325Z,100065.72
2023-01-01T21:28:46.494Z,100070.06
2023-01-01T21:31:13.738Z,100068.59
2023-01-01T21:33:41.207Z,100067.40
2023-01-01T21:36:22.065Z,100065.77
2023-01-01T21:38:50.799Z,100063.33
2023-01-01T21:41:23.972Z,100065.92
2023-01-01T21:43:54.929Z,100063.04
2023-01-01T21:46:24.756Z,100063.05
2023-01-01T21:49:22.328Z,100063.96
2023-01-01T21:51:58.438Z,100063.71
2023-01-01T21:54:35.021Z,100059.32
2023-01-01T21:57:02.794Z,100060.39
2023-01-01T21:59:37.660Z,100052.30
2023-01-01T22:02:05.538Z,100053.59
2023-01-01T22:04:36.998Z,100055.23
2023-01-01T22:07:30.775Z,100047.02
2023-01-01T22:09:56.502Z,100056.98
2023-01-01T22:12:24.719Z,100059.67
2023-01-01T22:14:53.047Z,100059.02
2023-01-01T22:17:28.583Z,100057.52
2023-01-01T22:20:06.787Z,100057.47
2023-01-01T22:22:33.564Z,100056.74
2023-01-01T22:25:00.808Z,100048.55
2023-01-01T22:27:28.405Z,100046.78
2023-01-01T22:29:56.304Z,100046.09
2023-01-01T22:32:27.444Z,100048.97
2023-01-01T22:35:05.248Z,100049.52
2023-01-01T22:37:35.880Z,100047.41
2023-01-01T22:40:02.625Z,100039.08
2023-01-01T22:42:30.633Z,100040.85
2023-01-01T22:44:57.652Z,100034.22
2023-01-01T22:47:30.702Z,100032.20
2023-01-01T22:49:58.809Z,100036.36
2023-01-01T22:52:25.533Z,100044.25
2023-01-01T22:54:52.248Z,100051.33
2023-01-01T22:57:18.868Z,100055.03
2023-01-01T22:59:45.544Z,100058.58
2023-01-01T23:02:12.273Z,100060.38
2023-01-01T23:04:38.989Z,100063.23
2023-01-01T23:07:06.443Z,100066.78
2023-01-01T23:09:33.170Z,100068.13
2023-01-01T23:12:01.063Z,100080.98
2023-01-01T23:14:46.296Z,100083.74
2023-01-01T23:17:12.970Z,100079.17
2023-01-01T23:19:39.623Z,100080.56
2023-01-01T23:22:06.344Z,100084.08
2023-01-01T23:24:33.052Z,100089.91
2023-01-01T23:26:59.636Z,100091.89
2023-01-01T23:29:28.817Z,100096.71
2023-01-01T23:31:55.630Z,100097.13
2023-01-01T23:34:22.262Z,100103.63
2023-01-01T23:36:48.941Z,100105.15
2023-01-01T23:39:15.704Z,100112.70
2023-01-01T23:41:42.460Z,100118.39
2023-01-01T23:44:09.231Z,100110.55
2023-01-01T23:46:35.921Z,100107.45
2023-01-01T23:49:02.819Z,100106.04
2023-01-01T23:51:31.309Z,100098.39
2023-01-01T23:53:58.034Z,100091.71
2023-01-01T23:56:24.841Z,100095.91
2023-01-01T23:58:51.974Z,100093.30
